Latest Weather Observations for Southern Cross Airport

IDW60801

Issued at 5:05 am WST Sunday 23 November 2014 (issued every 30 minutes, with the page automatically refreshed every 10 minutes)

About weather observations | Map of weather stations | Latest weather observations for WA | Other Formats
Station Details ID: 012320 Name: SOUTHERN CROSS AIRFIELD Lat: -31.24 Lon: 119.36 Height: 347.4 m
Data from the previous 72 hours. | See also: Recent months at Southern Cross Airport
Date/Time
WST
Temp
°C
App
Temp
°C
Dew
Point
Rel
Hum
%
Delta-T
°C
Wind Press
QNH
hPa
Press
MSL
hPa
Rain
since 9 am
mm
Dir
 
Spd
km/h
Gust
km/h
Spd
kts
Gust
kts
23/05:00am 12.7 8.8 7.0 68 2.8 SSW 17 20 9 11 1014.5 1013.1 0.0
23/04:30am 13.1 9.2 7.1 67 3.0 SSW 17 22 9 12 1014.3 1012.9 0.0
23/04:00am 13.7 9.2 7.0 64 3.3 SSW 20 30 11 16 1014.0 1012.6 0.0
23/03:30am 14.0 9.6 7.5 65 3.3 SSW 20 30 11 16 1013.7 1012.3 0.0
23/03:00am 14.4 10.2 7.5 63 3.5 SSW 19 28 10 15 1013.4 1012.0 0.0
23/02:30am 14.8 10.5 7.8 63 3.5 SSW 20 28 11 15 1013.0 1011.6 0.0
23/02:00am 15.4 11.3 7.7 60 3.9 SSW 19 24 10 13 1012.8 1011.4 0.0
23/01:30am 15.9 12.1 7.7 58 4.2 SSW 17 22 9 12 1012.8 1011.4 0.0
23/01:00am 16.4 11.7 7.6 56 4.5 SW 22 35 12 19 1012.8 1011.4 0.0
23/12:30am 17.0 11.8 7.1 52 5.0 SSW 24 32 13 17 1012.7 1011.3 0.0
23/12:00am 17.6 11.5 6.8 49 5.5 SW 28 35 15 19 1012.7 1011.3 0.0
 
Date/Time
WST
Temp
°C
App
Temp
°C
Dew
Point
Rel
Hum
%
Delta-T
°C
Wind Press
QNH
hPa
Press
MSL
hPa
Rain
since 9 am
mm
Dir
 
Spd
km/h
Gust
km/h
Spd
kts
Gust
kts
22/11:30pm 18.1 12.7 6.3 46 5.9 SW 24 33 13 18 1012.7 1011.3 0.0
22/11:00pm 18.5 14.1 5.0 41 6.6 WSW 17 24 9 13 1012.8 1011.4 0.0
22/10:30pm 19.0 14.9 4.4 38 7.1 WSW 15 19 8 10 1012.8 1011.4 0.0
22/10:00pm 19.3 15.6 4.3 37 7.3 WSW 13 17 7 9 1012.9 1011.5 0.0
22/09:30pm 20.0 15.9 4.1 35 7.8 WSW 15 19 8 10 1012.9 1011.5 0.0
22/09:00pm 20.2 16.0 3.9 34 7.9 WSW 15 19 8 10 1012.9 1011.5 0.0
22/08:30pm 20.8 16.6 4.0 33 8.2 WSW 15 19 8 10 1012.9 1011.5 0.0
22/08:00pm 21.4 17.2 3.6 31 8.7 WSW 15 20 8 11 1012.6 1011.2 0.0
22/07:30pm 22.3 17.7 3.9 30 9.1 WSW 17 20 9 11 1012.4 1011.0 0.0
22/07:00pm 23.0 17.9 4.0 29 9.5 SW 20 28 11 15 1012.1 1010.6 0.0
22/06:30pm 23.8 18.9 4.2 28 9.8 WSW 19 24 10 13 1011.8 1010.3 0.0
22/06:00pm 24.5 19.3 3.8 26 10.4 WNW 20 28 11 15 1011.4 1010.0 0.0
22/05:30pm 25.3 20.2 3.9 25 10.8 WSW 20 28 11 15 1011.1 1009.7 0.0
22/05:00pm 25.6 21.1 4.1 25 10.9 SW 17 32 9 17 1010.8 1009.4 0.0
22/04:30pm 25.9 20.9 3.8 24 11.2 WSW 19 30 10 16 1010.7 1009.3 0.0
22/04:00pm 25.6 21.1 4.1 25 10.9 SW 17 24 9 13 1010.8 1009.4 0.0
22/03:30pm 25.7 20.1 3.6 24 11.1 WNW 22 28 12 15 1010.9 1009.5 0.0
22/03:00pm 25.4 22.0 4.0 25 10.8 WSW 11 19 6 10 1010.9 1009.5 0.0
22/02:30pm 26.2 21.5 3.4 23 11.5 W 17 26 9 14 1011.2 1009.8 0.0
22/02:00pm 24.2 21.7 4.0 27 10.1 NNW 6 9 3 5 1011.6 1010.1 0.0
22/01:30pm 24.1 19.4 5.0 29 9.7 WNW 19 28 10 15 1011.9 1010.4 0.0
22/01:00pm 23.9 19.9 4.8 29 9.7 W 15 30 8 16 1012.2 1010.7 0.0
22/12:30pm 22.9 18.6 5.3 32 9.0 SSW 17 26 9 14 1012.4 1011.0 0.0
22/12:00pm 23.1 18.5 5.5 32 9.0 W 19 26 10 14 1012.7 1011.3 0.0
22/11:30am 22.0 19.1 6.3 36 8.1 WSW 11 20 6 11 1013.0 1011.6 0.0
22/11:00am 21.6 18.6 5.9 36 8.0 W 11 19 6 10 1013.2 1011.8 0.0
22/10:30am 21.0 18.3 5.4 36 7.9 W 9 19 5 10 1013.4 1012.0 0.0
22/10:00am 20.0 16.9 5.6 39 7.2 WSW 11 19 6 10 1013.6 1012.2 0.0
22/09:30am 19.1 15.7 5.9 42 6.6 SSW 13 20 7 11 1013.9 1012.5 0.0
22/09:00am 17.9 14.1 5.8 45 6.0 SSW 15 20 8 11 1014.1 1012.7 0.0
22/08:30am 17.4 13.6 6.0 47 5.7 SW 15 20 8 11 1014.1 1012.7 0.0
22/08:00am 17.1 13.7 6.0 48 5.5 S 13 22 7 12 1014.2 1012.8 0.0
22/07:30am 16.6 12.6 6.7 52 5.0 SW 17 22 9 12 1014.2 1012.8 0.0
22/07:00am 16.2 12.4 7.7 57 4.3 WSW 17 22 9 12 1014.0 1012.6 0.0
22/06:30am 14.9 11.6 7.9 63 3.6 WSW 15 22 8 12 1013.7 1012.3 0.0
22/06:00am 14.0 10.7 8.0 67 3.0 WSW 15 19 8 10 1013.4 1012.0 0.0
22/05:30am 12.5 9.8 7.4 71 2.5 WSW 11 11 6 6 1013.1 1011.7 0.0
22/05:00am 12.3 9.6 7.4 72 2.4 WSW 11 15 6 8 1012.8 1011.4 0.0
22/04:30am 12.5 9.8 7.4 71 2.5 SW 11 13 6 7 1012.4 1011.0 0.0
22/04:00am 13.2 10.9 7.4 68 2.9 SW 9 13 5 7 1012.2 1010.7 0.0
22/03:30am 14.0 11.0 7.8 66 3.1 SW 13 19 7 10 1012.1 1010.6 0.0
22/03:00am 14.4 11.5 8.1 66 3.2 WSW 13 17 7 9 1012.0 1010.5 0.0
22/02:30am 15.0 12.1 8.0 63 3.6 WSW 13 19 7 10 1011.8 1010.3 0.0
22/02:00am 15.3 12.4 8.1 62 3.7 SW 13 20 7 11 1011.8 1010.3 0.0
22/01:30am 15.8 12.1 8.1 60 4.0 SW 17 22 9 12 1011.7 1010.2 0.0
22/01:00am 16.3 12.1 8.3 59 4.1 SW 20 28 11 15 1011.7 1010.2 0.0
22/12:30am 16.9 12.0 8.3 57 4.5 SW 24 33 13 18 1011.8 1010.3 0.0
22/12:00am 17.5 12.5 8.1 54 4.9 SW 24 32 13 17 1011.9 1010.4 0.0
 
Date/Time
WST
Temp
°C
App
Temp
°C
Dew
Point
Rel
Hum
%
Delta-T
°C
Wind Press
QNH
hPa
Press
MSL
hPa
Rain
since 9 am
mm
Dir
 
Spd
km/h
Gust
km/h
Spd
kts
Gust
kts
21/11:30pm 18.4 12.6 7.8 50 5.5 SW 28 37 15 20 1011.7 1010.2 0.0
21/11:00pm 19.1 14.0 7.5 47 6.0 SW 24 37 13 20 1011.4 1010.0 0.0
21/10:30pm 19.4 15.0 7.5 46 6.2 SW 20 28 11 15 1011.6 1010.1 0.0
21/10:00pm 20.0 15.7 7.7 45 6.4 SW 20 28 11 15 1011.6 1010.1 0.0
21/09:30pm 20.7 16.2 8.7 46 6.4 SW 22 30 12 16 1011.4 1010.0 0.0
21/09:00pm 21.6 16.0 8.8 44 6.9 WSW 28 37 15 20 1011.3 1009.9 0.0
21/08:30pm 22.7 18.2 8.4 40 7.7 WSW 22 32 12 17 1010.9 1009.5 0.0
21/08:00pm 23.3 17.5 7.8 37 8.3 SW 28 37 15 20 1010.6 1009.2 0.0
21/07:30pm 24.2 19.6 8.2 36 8.7 WSW 22 32 12 17 1010.4 1009.0 0.0
21/07:00pm 24.6 20.1 8.5 36 8.8 WSW 22 30 12 16 1010.1 1008.7 0.0
21/06:30pm 25.0 20.4 8.1 34 9.2 WSW 22 30 12 16 1009.9 1008.5 0.0
21/06:00pm 25.7 21.5 8.2 33 9.6 W 20 30 11 16 1009.6 1008.1 0.0
21/05:30pm 26.7 21.6 7.7 30 10.3 WSW 24 33 13 18 1009.3 1007.8 0.0
21/05:00pm 26.4 20.5 7.4 30 10.3 WSW 28 39 15 21 1009.3 1007.8 0.0
21/04:30pm 26.8 21.4 7.8 30 10.3 WSW 26 37 14 20 1009.2 1007.7 0.0
21/04:23pm 26.8 21.0 7.8 30 10.3 W 28 46 15 25 1009.2 1007.7 0.0
21/04:00pm 26.8 21.1 8.3 31 10.2 W 28 39 15 21 1009.1 1007.6 0.0
21/03:30pm 27.5 20.9 7.9 29 10.7 W 32 44 17 24 1009.0 1007.5 0.0
21/03:00pm 27.6 21.8 8.0 29 10.8 W 28 39 15 21 1009.2 1007.7 0.0
21/02:48pm 28.4 22.5 7.6 27 11.4 W 28 46 15 25 1009.2 1007.7 0.0
21/02:30pm 27.8 22.0 8.1 29 10.8 WNW 28 37 15 20 1009.2 1007.7 0.0
21/02:00pm 26.7 20.1 7.7 30 10.3 WSW 32 41 17 22 1009.6 1008.1 0.0
21/01:30pm 27.2 21.7 7.6 29 10.7 W 26 46 14 25 1009.9 1008.5 0.0
21/01:00pm 26.5 20.3 8.0 31 10.1 W 30 50 16 27 1010.3 1008.9 0.0
21/12:38pm 26.3 20.5 7.8 31 10.0 W 28 50 15 27 1010.5 1009.1 0.0
21/12:30pm 26.4 21.5 8.4 32 9.9 W 24 39 13 21 1010.6 1009.2 0.0
21/12:00pm 25.6 20.6 8.1 33 9.5 W 24 41 13 22 1011.0 1009.6 0.0
21/11:30am 24.2 19.6 8.2 36 8.7 W 22 46 12 25 1011.4 1010.0 0.0
21/11:21am 24.8 19.1 8.3 35 9.0 W 28 46 15 25 1011.4 1010.0 0.0
21/11:00am 24.6 19.8 9.0 37 8.6 WNW 24 37 13 20 1011.7 1010.2 0.0
21/10:30am 23.7 19.3 8.9 39 8.1 W 22 35 12 19 1012.1 1010.6 0.0
21/10:00am 22.5 18.4 10.0 45 6.9 WSW 22 35 12 19 1012.3 1010.9 0.0
21/09:30am 21.8 17.3 10.0 47 6.5 WSW 24 37 13 20 1012.5 1011.1 0.0
21/09:00am 20.6 17.2 10.4 52 5.6 WSW 19 30 10 16 1012.9 1011.5 0.0
21/08:30am 19.2 15.8 10.5 57 4.8 W 19 26 10 14 1013.0 1011.6 0.0
21/08:00am 19.0 16.1 11.1 60 4.4 W 17 24 9 13 1013.1 1011.7 0.0
21/07:30am 17.4 14.4 10.8 65 3.6 W 17 24 9 13 1013.0 1011.6 0.0
21/07:00am 16.6 13.1 10.9 69 3.1 W 20 26 11 14 1012.8 1011.4 0.0
21/06:30am 15.7 13.3 10.2 70 2.9 W 13 19 7 10 1012.6 1011.2 0.0
21/06:00am 14.4 12.3 9.6 73 2.5 NW 11 15 6 8 1012.3 1010.9 0.0
21/05:30am 12.7 10.8 9.0 78 1.9 WNW 9 11 5 6 1012.1 1010.6 0.0
21/05:00am 12.0 10.3 8.5 79 1.8 W 7 9 4 5 1011.9 1010.4 0.0
21/04:30am 12.1 10.0 8.4 78 1.9 WNW 9 13 5 7 1011.6 1010.1 0.0
21/04:00am 12.6 10.2 8.5 76 2.1 W 11 13 6 7 1011.4 1010.0 0.0
21/03:30am 13.2 11.6 8.7 74 2.3 W 7 11 4 6 1011.4 1010.0 0.0
21/03:00am 13.6 11.6 8.7 72 2.5 W 9 13 5 7 1011.3 1009.9 0.0
21/02:30am 14.2 12.2 8.6 69 2.9 WSW 9 11 5 6 1011.3 1009.9 0.0
21/02:00am 14.8 12.4 8.5 66 3.2 WSW 11 13 6 7 1011.4 1010.0 0.0
21/01:30am 15.6 12.5 8.8 64 3.5 WSW 15 22 8 12 1011.7 1010.2 0.0
21/01:00am 16.3 12.4 8.8 61 3.9 WSW 19 24 10 13 1011.7 1010.2 0.0
21/12:30am 16.8 13.8 9.2 61 4.0 SW 15 19 8 10 1011.7 1010.2 0.0
21/12:00am 17.3 14.3 9.2 59 4.3 SW 15 20 8 11 1011.9 1010.4 0.0
 
Date/Time
WST
Temp
°C
App
Temp
°C
Dew
Point
Rel
Hum
%
Delta-T
°C
Wind Press
QNH
hPa
Press
MSL
hPa
Rain
since 9 am
mm
Dir
 
Spd
km/h
Gust
km/h
Spd
kts
Gust
kts
20/11:30pm 18.0 14.7 9.4 57 4.6 SW 17 20 9 11 1011.9 1010.4 0.0
20/11:00pm 18.6 15.3 9.7 56 4.8 SW 17 24 9 13 1012.0 1010.5 0.0
20/10:30pm 19.0 13.9 10.6 58 4.6 SW 28 33 15 18 1012.0 1010.5 0.0
20/10:00pm 19.9 13.8 10.6 55 5.1 SW 33 43 18 23 1012.0 1010.5 0.0
20/09:30pm 21.4 16.6 9.0 45 6.7 WSW 24 35 13 19 1011.7 1010.2 0.0
20/09:00pm 22.5 17.4 7.5 38 7.9 SW 24 32 13 17 1011.3 1009.9 0.0
20/08:30pm 23.3 17.3 7.0 35 8.6 SW 28 37 15 20 1011.0 1009.6 0.0
20/08:00pm 24.2 18.7 7.4 34 9.0 SW 26 35 14 19 1010.9 1009.5 0.0
20/07:30pm 25.1 20.1 6.3 30 9.9 WSW 22 28 12 15 1010.4 1009.0 0.0
20/07:00pm 26.0 21.2 5.6 27 10.7 WSW 20 28 11 15 1010.3 1008.9 0.0
20/06:30pm 27.0 21.8 5.3 25 11.3 W 22 32 12 17 1010.0 1008.6 0.0
20/06:00pm 27.9 22.3 3.6 21 12.4 W 22 33 12 18 1009.8 1008.4 0.0
20/05:30pm 28.8 21.6 2.9 19 13.1 W 30 46 16 25 1009.7 1008.2 0.0
20/05:04pm 29.1 22.2 2.4 18 13.4 W 28 46 15 25 1009.5 1008.0 0.0
20/05:00pm 29.6 23.5 2.8 18 13.6 W 24 39 13 21 1009.5 1008.0 0.0
20/04:30pm 29.8 23.0 2.9 18 13.7 W 28 46 15 25 1009.6 1008.1 0.0
20/04:27pm 30.2 23.4 3.3 18 13.8 W 28 46 15 25 1009.7 1008.2 0.0
20/04:00pm 30.4 23.3 3.4 18 13.9 W 30 43 16 23 1009.7 1008.2 0.0
20/03:30pm 29.9 21.8 3.0 18 13.7 W 35 52 19 28 1009.8 1008.4 0.0
20/03:00pm 30.2 22.5 2.5 17 14.1 W 32 50 17 27 1009.7 1008.2 0.0
20/02:53pm 30.5 22.9 2.7 17 14.2 W 32 50 17 27 1009.8 1008.4 0.0
20/02:30pm 30.3 23.4 2.5 17 14.1 W 28 35 15 19 1009.9 1008.5 0.0
20/02:08pm 30.3 22.6 3.4 18 13.9 W 33 52 18 28 1010.2 1008.8 0.0
20/02:02pm 30.4 20.8 3.4 18 13.9 W 43 52 23 28 1010.2 1008.8 0.0
20/02:00pm 30.4 22.9 3.4 18 13.9 WSW 32 46 17 25 1010.1 1008.7 0.0
20/01:30pm 29.5 22.8 3.5 19 13.4 WNW 28 46 15 25 1010.6 1009.2 0.0
20/01:09pm 30.2 23.6 4.0 19 13.6 W 28 46 15 25 1010.7 1009.3 0.0
20/01:00pm 29.5 22.8 3.5 19 13.4 W 28 41 15 22 1010.9 1009.5 0.0
20/12:37pm 29.4 22.4 4.1 20 13.1 W 30 48 16 26 1011.3 1009.9 0.0
20/12:30pm 29.1 21.9 3.1 19 13.2 W 30 43 16 23 1011.4 1010.0 0.0
20/12:11pm 28.9 21.3 3.0 19 13.1 WNW 32 54 17 29 1011.7 1010.2 0.0
20/12:00pm 28.7 21.3 2.1 18 13.3 W 30 46 16 25 1011.8 1010.3 0.0
20/11:48am 28.8 21.7 3.6 20 12.9 W 30 50 16 27 1011.9 1010.4 0.0
20/11:30am 28.3 20.9 3.9 21 12.5 W 32 43 17 23 1012.2 1010.7 0.0
20/11:00am 27.7 21.8 4.1 22 12.1 WNW 24 43 13 23 1012.7 1011.3 0.0
20/10:30am 27.1 21.6 4.2 23 11.7 WNW 22 39 12 21 1013.2 1011.8 0.0
20/10:00am 26.0 20.6 4.5 25 11.0 WNW 22 37 12 20 1013.7 1012.3 0.0
20/09:30am 25.3 20.5 5.5 28 10.3 NNW 20 33 11 18 1013.7 1012.3 0.0
20/09:00am 23.9 20.7 8.3 37 8.4 N 15 22 8 12 1014.0 1012.6 0.0
20/08:30am 22.1 19.0 8.9 43 7.1 NNW 15 19 8 10 1014.3 1012.9 0.0
20/08:00am 20.7 18.6 11.1 54 5.4 NNW 13 17 7 9 1014.4 1013.0 0.0
20/07:30am 19.0 17.8 11.6 62 4.1 NNW 9 13 5 7 1014.4 1013.0 0.0
20/07:00am 17.2 15.9 11.2 68 3.3 N 9 15 5 8 1014.3 1012.9 0.0
20/06:30am 16.2 16.5 10.9 71 2.9 CALM 0 6 0 3 1014.0 1012.6 0.0
20/06:00am 14.9 13.8 9.9 72 2.6 SW 6 7 3 4 1014.0 1012.6 0.0
20/05:30am 13.9 13.8 9.5 75 2.3 CALM 0 0 0 0 1014.0 1012.6 0.0

Other Formats:

Comma delimited format used in spreadsheet applications
http://www.bom.gov.au/fwo/IDW60801/IDW60801.95634.axf

JavaScript Object Notation format (JSON) in row-major order
http://www.bom.gov.au/fwo/IDW60801/IDW60801.95634.json